createdAt,value
2022-11-03T00:01:45.410Z,94710.44
2022-11-03T00:04:14.671Z,94708.78
2022-11-03T00:06:42.858Z,94717.75
2022-11-03T00:09:11.710Z,94711.91
2022-11-03T00:11:41.081Z,94718.69
2022-11-03T00:14:11.927Z,94713.88
2022-11-03T00:16:39.906Z,94718.47
2022-11-03T00:19:08.878Z,94713.69
2022-11-03T00:21:36.434Z,94705.44
2022-11-03T00:24:04.721Z,94707.25
2022-11-03T00:26:34.242Z,94701.91
2022-11-03T00:29:13.068Z,94705.94
2022-11-03T00:31:45.021Z,94692.84
2022-11-03T00:34:11.852Z,94688.91
2022-11-03T00:36:44.049Z,94689.63
2022-11-03T00:39:11.842Z,94687.88
2022-11-03T00:41:39.046Z,94687.31
2022-11-03T00:44:06.087Z,94681.75
2022-11-03T00:46:35.988Z,94678.41
2022-11-03T00:49:04.501Z,94678.03
2022-11-03T00:51:33.596Z,94677.13
2022-11-03T00:54:02.282Z,94679.13
2022-11-03T00:56:34.542Z,94680.13
2022-11-03T00:59:02.566Z,94676.97
2022-11-03T01:01:32.480Z,94670.91
2022-11-03T01:04:18.337Z,94664.50
2022-11-03T01:06:50.361Z,94665.88
2022-11-03T01:09:37.068Z,94665.88
2022-11-03T01:12:12.765Z,94660.56
2022-11-03T01:14:42.932Z,94655.84
2022-11-03T01:17:32.071Z,94660.50
2022-11-03T01:19:58.787Z,94640.16
2022-11-03T01:22:25.432Z,94639.94
2022-11-03T01:24:52.216Z,94638.13
2022-11-03T01:27:22.232Z,94633.31
2022-11-03T01:29:48.932Z,94622.19
2022-11-03T01:32:15.687Z,94628.72
2022-11-03T01:34:42.442Z,94624.63
2022-11-03T01:37:09.210Z,94615.56
2022-11-03T01:39:35.894Z,94616.06
2022-11-03T01:42:02.814Z,94610.25
2022-11-03T01:44:39.721Z,94600.84
2022-11-03T01:47:12.987Z,94601.47
2022-11-03T01:49:54.469Z,94601.53
2022-11-03T01:52:36.620Z,94598.66
2022-11-03T01:55:29.599Z,94593.28
2022-11-03T01:58:02.451Z,94594.41
2022-11-03T02:00:29.161Z,94588.59
2022-11-03T02:02:56.381Z,94581.72
2022-11-03T02:05:24.919Z,94582.00
2022-11-03T02:07:58.700Z,94582.28
2022-11-03T02:10:25.572Z,94577.47
2022-11-03T02:12:52.619Z,94574.22
2022-11-03T02:15:22.123Z,94568.44
2022-11-03T02:17:52.078Z,94572.56
2022-11-03T02:20:22.721Z,94570.44
2022-11-03T02:23:08.163Z,94575.75
2022-11-03T02:25:41.626Z,94562.66
2022-11-03T02:28:08.714Z,94563.50
2022-11-03T02:30:50.849Z,94567.47
2022-11-03T02:33:17.462Z,94564.38
2022-11-03T02:35:51.774Z,94552.03
2022-11-03T02:38:22.980Z,94550.16
2022-11-03T02:40:54.973Z,94548.00
2022-11-03T02:43:24.757Z,94545.53
2022-11-03T02:45:53.126Z,94547.84
2022-11-03T02:48:20.002Z,94545.94
2022-11-03T02:50:49.150Z,94540.72
2022-11-03T02:53:16.606Z,94537.56
2022-11-03T02:55:51.726Z,94533.94
2022-11-03T02:58:32.117Z,94532.34
2022-11-03T03:01:24.976Z,94529.41
2022-11-03T03:04:01.378Z,94524.38
2022-11-03T03:06:43.524Z,94529.47
2022-11-03T03:09:18.546Z,94514.66
2022-11-03T03:11:47.666Z,94518.91
2022-11-03T03:14:22.915Z,94520.41
2022-11-03T03:17:00.955Z,94513.31
2022-11-03T03:19:41.434Z,94501.88
2022-11-03T03:22:29.298Z,94510.81
2022-11-03T03:24:59.863Z,94509.16
2022-11-03T03:27:28.763Z,94496.38
2022-11-03T03:30:07.046Z,94505.94
2022-11-03T03:32:38.812Z,94504.63
2022-11-03T03:35:08.783Z,94505.91
2022-11-03T03:37:43.259Z,94490.25
2022-11-03T03:40:13.954Z,94495.44
2022-11-03T03:42:42.201Z,94498.72
2022-11-03T03:45:11.853Z,94495.34
2022-11-03T03:47:38.728Z,94476.16
2022-11-03T03:50:06.266Z,94491.81
2022-11-03T03:52:36.021Z,94489.16
2022-11-03T03:55:02.720Z,94480.47
2022-11-03T03:57:31.725Z,94471.78
2022-11-03T03:59:58.555Z,94473.28
2022-11-03T04:02:25.295Z,94460.28
2022-11-03T04:04:52.055Z,94455.84
2022-11-03T04:07:42.463Z,94446.78
2022-11-03T04:10:11.034Z,94452.50
2022-11-03T04:12:58.729Z,94452.16
2022-11-03T04:15:43.950Z,94444.81
2022-11-03T04:18:29.294Z,94443.09
2022-11-03T04:21:14.559Z,94443.31
2022-11-03T04:23:41.306Z,94445.47
2022-11-03T04:26:13.714Z,94444.00
2022-11-03T04:28:41.220Z,94437.84
2022-11-03T04:31:13.266Z,94431.00
2022-11-03T04:33:41.628Z,94417.19
2022-11-03T04:36:24.420Z,94421.97
2022-11-03T04:38:52.022Z,94420.41
2022-11-03T04:41:25.324Z,94414.69
2022-11-03T04:43:52.873Z,94395.50
2022-11-03T04:46:27.852Z,94401.91
2022-11-03T04:48:58.098Z,94398.94
2022-11-03T04:51:31.150Z,94389.06
2022-11-03T04:54:13.327Z,94377.22
2022-11-03T04:56:40.608Z,94371.41
2022-11-03T04:59:15.059Z,94366.97
2022-11-03T05:01:43.908Z,94356.59
2022-11-03T05:04:18.103Z,94360.22
2022-11-03T05:06:53.045Z,94352.53
2022-11-03T05:09:41.881Z,94350.78
2022-11-03T05:12:10.132Z,94352.41
2022-11-03T05:14:37.694Z,94342.19
2022-11-03T05:17:21.266Z,94334.78
2022-11-03T05:19:48.091Z,94339.13
2022-11-03T05:22:22.130Z,94346.50
2022-11-03T05:24:57.924Z,94347.09
2022-11-03T05:27:25.074Z,94346.59
2022-11-03T05:29:59.473Z,94340.50
2022-11-03T05:32:33.429Z,94338.91
2022-11-03T05:35:01.046Z,94337.34
2022-11-03T05:37:29.590Z,94343.84
2022-11-03T05:40:03.726Z,94336.94
2022-11-03T05:42:42.834Z,94333.50
2022-11-03T05:45:20.381Z,94327.69
2022-11-03T05:47:48.780Z,94325.91
2022-11-03T05:50:18.433Z,94329.06
2022-11-03T05:52:46.928Z,94327.47
2022-11-03T05:55:34.078Z,94317.34
2022-11-03T05:58:12.112Z,94321.06
2022-11-03T06:00:47.088Z,94314.09
2022-11-03T06:03:21.586Z,94324.53
2022-11-03T06:05:48.395Z,94318.63
2022-11-03T06:08:21.747Z,94305.84
2022-11-03T06:10:54.032Z,94320.78
2022-11-03T06:13:25.215Z,94317.63
2022-11-03T06:15:57.933Z,94310.38
2022-11-03T06:18:29.866Z,94313.81
2022-11-03T06:20:59.728Z,94322.56
2022-11-03T06:23:26.698Z,94305.78
2022-11-03T06:25:55.754Z,94325.00
2022-11-03T06:28:29.753Z,94314.25
2022-11-03T06:30:56.798Z,94310.38
2022-11-03T06:33:29.592Z,94302.19
2022-11-03T06:36:01.538Z,94304.00
2022-11-03T06:38:31.700Z,94294.06
2022-11-03T06:40:58.969Z,94301.34
2022-11-03T06:43:39.709Z,94299.97
2022-11-03T06:46:14.976Z,94308.81
2022-11-03T06:48:41.648Z,94294.06
2022-11-03T06:51:35.337Z,94307.22
2022-11-03T06:54:05.616Z,94313.22
2022-11-03T06:56:36.781Z,94295.41
2022-11-03T06:59:03.411Z,94294.63
2022-11-03T07:01:32.732Z,94290.69
2022-11-03T07:04:03.013Z,94287.31
2022-11-03T07:06:32.070Z,94290.34
2022-11-03T07:09:04.985Z,94299.53
2022-11-03T07:11:36.110Z,94286.75
2022-11-03T07:14:14.506Z,94285.25
2022-11-03T07:16:47.908Z,94283.66
2022-11-03T07:19:36.792Z,94275.69
2022-11-03T07:22:16.725Z,94263.00
2022-11-03T07:24:48.668Z,94265.78
2022-11-03T07:27:25.314Z,94261.06
2022-11-03T07:29:57.064Z,94263.69
2022-11-03T07:32:29.376Z,94259.88
2022-11-03T07:35:01.539Z,94256.38
2022-11-03T07:37:28.206Z,94256.88
2022-11-03T07:39:54.925Z,94259.03
2022-11-03T07:42:23.081Z,94258.72
2022-11-03T07:44:53.372Z,94251.91
2022-11-03T07:47:27.854Z,94252.22
2022-11-03T07:49:56.159Z,94264.22
2022-11-03T07:52:26.111Z,94264.44
2022-11-03T07:54:57.151Z,94261.78
2022-11-03T07:57:30.400Z,94257.16
2022-11-03T08:00:03.881Z,94237.78
2022-11-03T08:03:01.128Z,94249.91
2022-11-03T08:05:27.762Z,94236.63
2022-11-03T08:07:54.408Z,94226.97
2022-11-03T08:10:21.586Z,94222.75
2022-11-03T08:12:51.651Z,94218.78
2022-11-03T08:15:18.284Z,94221.47
2022-11-03T08:17:44.910Z,94219.19
2022-11-03T08:20:11.946Z,94204.50
2022-11-03T08:22:38.643Z,94207.47
2022-11-03T08:25:05.769Z,94193.88
2022-11-03T08:27:32.435Z,94192.78
2022-11-03T08:29:59.093Z,94191.19
2022-11-03T08:32:25.706Z,94195.13
2022-11-03T08:34:52.424Z,94184.72
2022-11-03T08:37:19.168Z,94186.78
2022-11-03T08:39:45.817Z,94178.31
2022-11-03T08:42:12.449Z,94182.84
2022-11-03T08:44:39.117Z,94174.03
2022-11-03T08:47:05.826Z,94171.78
2022-11-03T08:49:32.458Z,94163.59
2022-11-03T08:51:59.254Z,94163.91
2022-11-03T08:54:26.492Z,94160.38
2022-11-03T08:56:53.103Z,94157.09
2022-11-03T08:59:19.733Z,94161.03
2022-11-03T09:01:46.829Z,94153.34
2022-11-03T09:04:13.587Z,94142.13
2022-11-03T09:06:41.311Z,94141.75
2022-11-03T09:11:54.608Z,94143.00
2022-11-03T09:14:21.253Z,94140.16
2022-11-03T09:16:47.872Z,94143.78
2022-11-03T09:19:14.552Z,94141.84
2022-11-03T09:21:41.218Z,94138.13
2022-11-03T09:24:08.014Z,94136.13
2022-11-03T09:26:34.794Z,94130.56
2022-11-03T09:29:01.410Z,94134.78
2022-11-03T09:31:29.272Z,94138.34
2022-11-03T09:33:56.226Z,94136.47
2022-11-03T09:36:22.898Z,94133.34
2022-11-03T09:38:49.646Z,94136.97
2022-11-03T09:41:27.687Z,94141.88
2022-11-03T09:44:02.817Z,94145.81
2022-11-03T09:46:30.486Z,94139.59
2022-11-03T09:48:58.348Z,94143.25
2022-11-03T09:51:27.373Z,94146.88
2022-11-03T09:53:57.274Z,94144.94
2022-11-03T09:56:25.648Z,94135.94
2022-11-03T09:58:54.575Z,94149.16
2022-11-03T10:01:22.882Z,94143.69
2022-11-03T10:03:49.793Z,94145.94
2022-11-03T10:06:17.664Z,94142.31
2022-11-03T10:08:46.368Z,94136.91
2022-11-03T10:11:13.660Z,94133.84
2022-11-03T10:13:43.790Z,94141.69
2022-11-03T10:16:14.946Z,94127.31
2022-11-03T10:18:42.655Z,94122.75
2022-11-03T10:21:14.921Z,94114.28
2022-11-03T10:23:41.565Z,94114.44
2022-11-03T10:26:11.119Z,94100.59
2022-11-03T10:28:38.374Z,94093.34
2022-11-03T10:31:11.777Z,94099.78
2022-11-03T10:33:41.856Z,94097.91
2022-11-03T10:36:17.431Z,94098.66
2022-11-03T10:38:44.488Z,94083.44
2022-11-03T10:41:17.451Z,94078.59
2022-11-03T10:44:04.534Z,94079.84
2022-11-03T10:49:20.609Z,94064.59
2022-11-03T10:51:50.769Z,94055.19
2022-11-03T10:54:19.637Z,94061.31
2022-11-03T10:56:48.173Z,94056.94
2022-11-03T10:59:20.751Z,94054.44
2022-11-03T11:01:47.825Z,94053.38
2022-11-03T11:04:19.187Z,94051.50
2022-11-03T11:06:46.699Z,94041.25
2022-11-03T11:09:19.488Z,94052.56
2022-11-03T11:11:59.881Z,94045.38
2022-11-03T11:14:28.028Z,94042.97
2022-11-03T11:16:59.173Z,94041.41
2022-11-03T11:19:27.839Z,94037.91
2022-11-03T11:21:54.391Z,94026.88
2022-11-03T11:24:50.133Z,94015.44
2022-11-03T11:27:32.168Z,94016.84
2022-11-03T11:29:59.525Z,94025.97
2022-11-03T11:32:46.417Z,94028.94
2022-11-03T11:35:17.738Z,94017.31
2022-11-03T11:37:44.570Z,94017.63
2022-11-03T11:40:35.145Z,94008.34
2022-11-03T11:43:11.727Z,94002.22
2022-11-03T11:46:16.355Z,93992.53
2022-11-03T11:48:43.220Z,93981.09
2022-11-03T11:51:11.672Z,93985.75
2022-11-03T11:53:41.297Z,93981.19
2022-11-03T11:56:14.023Z,93980.56
2022-11-03T11:58:49.428Z,93983.22
2022-11-03T12:01:32.728Z,93978.34
2022-11-03T12:04:05.757Z,93979.44
2022-11-03T12:06:37.445Z,93973.47
2022-11-03T12:09:19.093Z,93962.94
2022-11-03T12:11:55.403Z,93968.63
2022-11-03T12:14:29.828Z,93963.16
2022-11-03T12:17:16.894Z,93962.06
2022-11-03T12:19:52.829Z,93949.69
2022-11-03T12:22:29.405Z,93942.91
2022-11-03T12:25:05.177Z,93942.75
2022-11-03T12:27:34.176Z,93942.59
2022-11-03T12:30:03.925Z,93937.84
2022-11-03T12:32:34.861Z,93923.38
2022-11-03T12:35:08.492Z,93908.59
2022-11-03T12:37:36.218Z,93911.28
2022-11-03T12:40:04.343Z,93901.59
2022-11-03T12:42:31.599Z,93889.41
2022-11-03T12:44:58.480Z,93889.28
2022-11-03T12:47:25.391Z,93888.66
2022-11-03T12:49:52.299Z,93883.66
2022-11-03T12:52:19.263Z,93881.91
2022-11-03T12:54:46.213Z,93878.13
2022-11-03T12:57:13.984Z,93884.84
2022-11-03T12:59:40.748Z,93874.19
2022-11-03T13:02:10.499Z,93865.53
2022-11-03T13:04:38.131Z,93864.88
2022-11-03T13:07:04.793Z,93862.91
2022-11-03T13:09:31.543Z,93869.03
2022-11-03T13:12:16.724Z,93858.06
2022-11-03T13:14:46.116Z,93858.75
2022-11-03T13:17:15.242Z,93855.66
2022-11-03T13:19:42.040Z,93844.19
2022-11-03T13:22:08.742Z,93839.00
2022-11-03T13:24:35.438Z,93833.19
2022-11-03T13:27:02.157Z,93841.81
2022-11-03T13:29:33.999Z,93830.84
2022-11-03T13:32:03.565Z,93831.59
2022-11-03T13:34:30.779Z,93815.34
2022-11-03T13:36:58.689Z,93806.22
2022-11-03T13:39:25.373Z,93806.44
2022-11-03T13:41:52.015Z,93793.47
2022-11-03T13:44:18.709Z,93800.41
2022-11-03T13:46:45.339Z,93791.84
2022-11-03T13:51:58.621Z,93795.34
2022-11-03T14:00:02.002Z,93775.03
2022-11-03T14:05:25.696Z,93763.13
2022-11-03T14:07:52.388Z,93754.66
2022-11-03T14:10:19.038Z,93745.41
2022-11-03T14:12:45.728Z,93740.22
2022-11-03T14:15:12.915Z,93730.59
2022-11-03T14:17:40.406Z,93729.81
2022-11-03T14:20:11.458Z,93725.09
2022-11-03T14:22:39.441Z,93741.13
2022-11-03T14:25:07.786Z,93738.41
2022-11-03T14:27:34.506Z,93732.03
2022-11-03T14:30:01.257Z,93716.31
2022-11-03T14:32:27.958Z,93700.56
2022-11-03T14:34:54.832Z,93700.25
2022-11-03T14:37:22.699Z,93699.78
2022-11-03T14:39:49.630Z,93688.53
2022-11-03T14:42:16.749Z,93698.22
2022-11-03T14:44:45.629Z,93699.84
2022-11-03T14:47:14.920Z,93691.06
2022-11-03T14:49:41.779Z,93682.47
2022-11-03T14:52:08.578Z,93683.00
2022-11-03T14:54:39.147Z,93680.16
2022-11-03T14:57:05.986Z,93670.31
2022-11-03T14:59:34.416Z,93681.56
2022-11-03T15:02:02.032Z,93676.78
2022-11-03T15:04:28.851Z,93661.31
2022-11-03T15:06:55.746Z,93661.06
2022-11-03T15:09:22.718Z,93655.72
2022-11-03T15:11:49.595Z,93648.16
2022-11-03T15:14:16.372Z,93636.91
2022-11-03T15:16:44.057Z,93629.09
2022-11-03T15:19:10.716Z,93625.31
2022-11-03T15:21:38.699Z,93616.19
2022-11-03T15:26:52.199Z,93608.41
2022-11-03T15:29:19.027Z,93597.16
2022-11-03T15:31:48.271Z,93589.84
2022-11-03T15:34:16.426Z,93592.31
2022-11-03T15:36:43.072Z,93602.09
2022-11-03T15:39:09.767Z,93595.81
2022-11-03T15:41:36.523Z,93591.50
2022-11-03T15:44:03.419Z,93576.72
2022-11-03T15:46:30.139Z,93579.81
2022-11-03T15:48:57.673Z,93578.28
2022-11-03T15:51:24.930Z,93569.69
2022-11-03T15:53:57.784Z,93570.53
2022-11-03T15:56:29.691Z,93563.56
2022-11-03T15:58:56.540Z,93554.34
2022-11-03T16:01:23.364Z,93544.59
2022-11-03T16:03:50.186Z,93554.16
2022-11-03T16:06:16.833Z,93549.28
2022-11-03T16:08:43.619Z,93544.38
2022-11-03T16:11:10.234Z,93543.25
2022-11-03T16:13:36.884Z,93540.16
2022-11-03T16:16:03.716Z,93539.16
2022-11-03T16:18:30.446Z,93518.84
2022-11-03T16:20:57.078Z,93511.16
2022-11-03T16:23:23.867Z,93503.59
2022-11-03T16:25:50.557Z,93499.25
2022-11-03T16:28:17.334Z,93494.63
2022-11-03T16:30:44.970Z,93482.94
2022-11-03T16:33:12.992Z,93494.72
2022-11-03T16:35:39.670Z,93478.25
2022-11-03T16:38:09.425Z,93486.38
2022-11-03T16:40:36.269Z,93476.03
2022-11-03T16:43:02.894Z,93469.94
2022-11-03T16:45:33.531Z,93462.63
2022-11-03T16:48:03.187Z,93485.31
2022-11-03T16:50:29.834Z,93459.97
2022-11-03T16:52:57.129Z,93463.03
2022-11-03T16:55:23.765Z,93448.19
2022-11-03T16:57:50.443Z,93448.75
2022-11-03T17:00:19.126Z,93441.75
2022-11-03T17:02:46.690Z,93430.84
2022-11-03T17:05:15.438Z,93434.16
2022-11-03T17:07:42.230Z,93427.28
2022-11-03T17:10:09.700Z,93406.19
2022-11-03T17:12:36.564Z,93396.63
2022-11-03T17:15:04.215Z,93406.44
2022-11-03T17:17:30.935Z,93406.84
2022-11-03T17:19:57.867Z,93394.38
2022-11-03T17:22:24.752Z,93389.94
2022-11-03T17:24:51.897Z,93393.63
2022-11-03T17:27:22.526Z,93401.94
2022-11-03T17:29:56.251Z,93393.00
2022-11-03T17:32:31.512Z,93391.78
2022-11-03T17:34:58.950Z,93398.81
2022-11-03T17:37:26.363Z,93394.38
2022-11-03T17:39:53.227Z,93408.06
2022-11-03T17:42:25.374Z,93393.75
2022-11-03T17:44:58.071Z,93388.19
2022-11-03T17:47:25.135Z,93387.41
2022-11-03T17:49:51.922Z,93389.19
2022-11-03T17:52:28.620Z,93393.72
2022-11-03T17:54:59.937Z,93400.19
2022-11-03T17:57:27.012Z,93397.41
2022-11-03T17:59:56.240Z,93382.75
2022-11-03T18:02:28.767Z,93394.66
2022-11-03T18:05:18.435Z,93387.75
2022-11-03T18:07:48.116Z,93395.97
2022-11-03T18:10:14.818Z,93378.63
2022-11-03T18:13:04.657Z,93393.69
2022-11-03T18:15:34.001Z,93381.44
2022-11-03T18:18:01.702Z,93366.75
2022-11-03T18:20:30.182Z,93362.13
2022-11-03T18:23:12.251Z,93347.31
2022-11-03T18:25:38.876Z,93339.13
2022-11-03T18:28:05.707Z,93332.22
2022-11-03T18:30:32.839Z,93347.22
2022-11-03T18:32:59.807Z,93339.13
2022-11-03T18:35:31.659Z,93330.44
2022-11-03T18:37:58.421Z,93313.56
2022-11-03T18:40:25.147Z,93307.88
2022-11-03T18:42:51.824Z,93313.66
2022-11-03T18:45:20.038Z,93321.34
2022-11-03T18:47:46.735Z,93336.56
2022-11-03T18:50:17.508Z,93331.34
2022-11-03T18:52:51.981Z,93318.88
2022-11-03T18:55:18.752Z,93306.00
2022-11-03T18:57:45.483Z,93300.91
2022-11-03T19:00:21.482Z,93298.44
2022-11-03T19:02:48.171Z,93288.78
2022-11-03T19:05:15.554Z,93276.66
2022-11-03T19:07:49.220Z,93272.78
2022-11-03T19:10:21.774Z,93269.22
2022-11-03T19:12:48.611Z,93275.09
2022-11-03T19:15:22.700Z,93283.66
2022-11-03T19:17:57.911Z,93278.34
2022-11-03T19:20:25.561Z,93286.91
2022-11-03T19:22:52.846Z,93278.34
2022-11-03T19:25:19.541Z,93263.44
2022-11-03T19:27:48.074Z,93250.78
2022-11-03T19:30:19.698Z,93249.44
2022-11-03T19:32:49.641Z,93249.44
2022-11-03T19:35:24.212Z,93258.91
2022-11-03T19:38:11.078Z,93240.22
2022-11-03T19:40:39.165Z,93243.19
2022-11-03T19:43:09.232Z,93230.53
2022-11-03T19:45:35.883Z,93217.75
2022-11-03T19:50:52.276Z,93206.06
2022-11-03T19:53:29.745Z,93207.44
2022-11-03T19:55:57.172Z,93191.09
2022-11-03T19:58:26.480Z,93177.66
2022-11-03T20:00:54.099Z,93180.09
2022-11-03T20:03:22.276Z,93176.75
2022-11-03T20:05:52.214Z,93180.97
2022-11-03T20:08:22.158Z,93179.53
2022-11-03T20:10:49.008Z,93191.44
2022-11-03T20:13:19.179Z,93222.88
2022-11-03T20:15:46.780Z,93220.22
2022-11-03T20:18:15.071Z,93211.28
2022-11-03T20:20:43.821Z,93204.28
2022-11-03T20:23:32.791Z,93214.63
2022-11-03T20:25:59.805Z,93187.66
2022-11-03T20:28:28.808Z,93193.84
2022-11-03T20:30:56.366Z,93176.44
2022-11-03T20:33:24.730Z,93130.66
2022-11-03T20:35:53.644Z,93130.84
2022-11-03T20:38:21.152Z,93135.22
2022-11-03T20:40:49.075Z,93150.91
2022-11-03T20:43:26.832Z,93154.53
2022-11-03T20:45:54.710Z,93148.25
2022-11-03T20:48:21.946Z,93155.53
2022-11-03T20:50:49.442Z,93161.31
2022-11-03T20:53:19.513Z,93151.53
2022-11-03T20:55:46.310Z,93140.06
2022-11-03T20:58:16.087Z,93147.94
2022-11-03T21:00:44.588Z,93136.84
2022-11-03T21:03:38.222Z,93139.16
2022-11-03T21:06:04.872Z,93139.59
2022-11-03T21:08:31.575Z,93149.25
2022-11-03T21:11:18.196Z,93154.94
2022-11-03T21:13:44.867Z,93147.94
2022-11-03T21:16:30.253Z,93159.84
2022-11-03T21:19:15.625Z,93161.06
2022-11-03T21:21:42.323Z,93172.69
2022-11-03T21:24:11.503Z,93167.03
2022-11-03T21:26:40.114Z,93156.88
2022-11-03T21:29:06.896Z,93170.47
2022-11-03T21:31:33.689Z,93159.88
2022-11-03T21:34:00.348Z,93160.47
2022-11-03T21:36:27.327Z,93167.34
2022-11-03T21:38:54.216Z,93150.56
2022-11-03T21:41:39.620Z,93154.94
2022-11-03T21:44:16.311Z,93163.13
2022-11-03T21:46:44.344Z,93165.38
2022-11-03T21:49:29.991Z,93170.13
2022-11-03T21:51:56.924Z,93166.34
2022-11-03T21:54:24.397Z,93194.09
2022-11-03T21:56:51.292Z,93194.53
2022-11-03T21:59:17.935Z,93196.78
2022-11-03T22:01:45.183Z,93219.91
2022-11-03T22:04:12.174Z,93211.44
2022-11-03T22:06:39.067Z,93200.19
2022-11-03T22:09:06.465Z,93209.41
2022-11-03T22:11:33.495Z,93217.25
2022-11-03T22:14:01.956Z,93212.81
2022-11-03T22:16:38.484Z,93211.00
2022-11-03T22:19:40.205Z,93221.44
2022-11-03T22:22:30.957Z,93218.50
2022-11-03T22:25:16.890Z,93212.75
2022-11-03T22:27:44.609Z,93214.72
2022-11-03T22:30:30.281Z,93220.25
2022-11-03T22:32:58.009Z,93224.38
2022-11-03T22:35:44.100Z,93226.78
2022-11-03T22:38:13.496Z,93214.78
2022-11-03T22:41:00.504Z,93230.34
2022-11-03T22:43:46.432Z,93227.91
2022-11-03T22:46:15.345Z,93236.28
2022-11-03T22:48:43.630Z,93241.72
2022-11-03T22:51:13.403Z,93254.06
2022-11-03T22:53:59.119Z,93260.72
2022-11-03T22:56:28.106Z,93267.00
2022-11-03T22:58:55.491Z,93261.38
2022-11-03T23:01:26.831Z,93265.63
2022-11-03T23:03:54.112Z,93260.88
2022-11-03T23:06:26.113Z,93259.16
2022-11-03T23:08:55.381Z,93272.19
2022-11-03T23:11:33.992Z,93259.41
2022-11-03T23:14:06.007Z,93281.34
2022-11-03T23:16:35.269Z,93273.13
2022-11-03T23:19:21.893Z,93285.13
2022-11-03T23:21:51.183Z,93278.56
2022-11-03T23:24:42.180Z,93272.69
2022-11-03T23:27:12.809Z,93273.41
2022-11-03T23:29:40.269Z,93284.47
2022-11-03T23:32:07.483Z,93286.63
2022-11-03T23:34:37.164Z,93282.72
2022-11-03T23:37:04.049Z,93248.97
2022-11-03T23:39:30.822Z,93256.22
2022-11-03T23:41:57.854Z,93307.41
2022-11-03T23:44:24.539Z,93306.56
2022-11-03T23:47:09.903Z,93301.88
2022-11-03T23:49:36.580Z,93307.31
2022-11-03T23:52:03.244Z,93300.84
2022-11-03T23:54:30.014Z,93293.19
2022-11-03T23:57:15.300Z,93290.84
2022-11-03T23:59:42.202Z,93290.84
